Union City, Oklahoma
Current Conditions -  °F | °C
As of 11:35 PM on Monday 26 Jan 2015 (Local Time) from KRQO Reporting Station
Clear Clear  
Wind Chill: 37°   Ceiling: Unl
Heat Index: 43°   Visibility: NA
Dew Point: 34°   Wind: 9mph
Humidity: 70%   Direction: 280°W
Pressure: 30.1"   Gusts: NA
Location:  35.39°N, 97.94°W
Report Text: KRQO 270535Z AUTO 28008KT CLR 06/01 A3010 RMK AO2 PWINO
Loading
Personal Weather Stations






























Interactive Weather Map New forecast layout! Learn more

10-Day Weather Forecast

Advertisements
Track Severe Weather on mobile